createdAt,value
2019-01-23T00:01:34.502Z,35.00
2019-01-23T00:04:01.771Z,33.40
2019-01-23T00:06:29.025Z,42.63
2019-01-23T00:08:56.320Z,33.57
2019-01-23T00:11:23.597Z,35.93
2019-01-23T00:13:50.809Z,35.07
2019-01-23T00:16:18.068Z,31.27
2019-01-23T00:18:45.280Z,33.20
2019-01-23T00:21:12.483Z,34.40
2019-01-23T00:23:39.701Z,32.77
2019-01-23T00:26:06.955Z,32.50
2019-01-23T00:28:34.138Z,34.47
2019-01-23T00:31:01.436Z,33.67
2019-01-23T00:33:28.696Z,32.10
2019-01-23T00:35:55.893Z,31.07
2019-01-23T00:38:23.090Z,32.87
2019-01-23T00:40:50.368Z,30.50
2019-01-23T00:43:17.615Z,33.87
2019-01-23T00:45:44.884Z,34.73
2019-01-23T00:48:12.123Z,30.70
2019-01-23T00:50:39.439Z,33.57
2019-01-23T00:53:06.702Z,29.57
2019-01-23T00:55:33.891Z,31.90
2019-01-23T00:58:01.137Z,32.80
2019-01-23T01:00:28.352Z,30.47
2019-01-23T01:02:55.540Z,32.80
2019-01-23T01:05:22.862Z,30.67
2019-01-23T01:07:50.135Z,29.23
2019-01-23T01:10:18.699Z,32.27
2019-01-23T01:12:45.975Z,33.77
2019-01-23T01:15:13.708Z,30.00
2019-01-23T01:17:41.702Z,29.13
2019-01-23T01:20:10.284Z,30.50
2019-01-23T01:22:37.569Z,32.23
2019-01-23T01:25:06.617Z,30.10
2019-01-23T01:27:33.821Z,34.13
2019-01-23T01:30:01.020Z,36.93
2019-01-23T01:32:28.257Z,32.57
2019-01-23T01:34:55.543Z,35.83
2019-01-23T01:37:22.791Z,31.53
2019-01-23T01:39:50.005Z,28.00
2019-01-23T01:42:17.299Z,34.47
2019-01-23T01:44:44.683Z,34.70
2019-01-23T01:47:11.882Z,33.30
2019-01-23T01:49:39.089Z,33.00
2019-01-23T01:52:06.304Z,34.47
2019-01-23T01:54:33.494Z,27.53
2019-01-23T01:57:00.741Z,29.37
2019-01-23T01:59:28.004Z,34.37
2019-01-23T02:01:55.288Z,33.87
2019-01-23T02:04:22.525Z,29.97
2019-01-23T02:06:49.812Z,32.40
2019-01-23T02:09:17.114Z,28.83
2019-01-23T02:11:44.418Z,31.90
2019-01-23T02:14:11.708Z,30.43
2019-01-23T02:16:38.987Z,33.30
2019-01-23T02:19:06.310Z,33.37
2019-01-23T02:21:33.603Z,27.70
2019-01-23T02:24:00.872Z,32.37
2019-01-23T02:26:28.168Z,28.93
2019-01-23T02:28:55.371Z,31.67
2019-01-23T02:31:22.597Z,34.30
2019-01-23T02:33:49.956Z,30.93
2019-01-23T02:36:17.283Z,31.77
2019-01-23T02:38:44.504Z,32.33
2019-01-23T02:41:11.716Z,34.67
2019-01-23T02:43:38.964Z,35.37
2019-01-23T02:46:06.291Z,34.07
2019-01-23T02:48:33.482Z,31.40
2019-01-23T02:51:00.671Z,33.20
2019-01-23T02:53:27.955Z,38.93
2019-01-23T02:55:55.191Z,35.97
2019-01-23T02:58:22.495Z,35.73
2019-01-23T03:00:49.677Z,32.90
2019-01-23T03:03:16.888Z,35.93
2019-01-23T03:05:44.096Z,31.87
2019-01-23T03:08:11.338Z,37.07
2019-01-23T03:10:38.535Z,32.73
2019-01-23T03:13:05.768Z,36.33
2019-01-23T03:15:33.108Z,36.63
2019-01-23T03:18:00.354Z,35.50
2019-01-23T03:20:27.598Z,31.20
2019-01-23T03:22:54.857Z,34.63
2019-01-23T03:25:22.105Z,35.00
2019-01-23T03:27:49.338Z,38.43
2019-01-23T03:30:18.003Z,33.70
2019-01-23T03:32:45.286Z,38.17
2019-01-23T03:35:12.522Z,35.40
2019-01-23T03:37:39.758Z,36.77
2019-01-23T03:40:08.684Z,37.10
2019-01-23T03:42:35.896Z,33.77
2019-01-23T03:45:05.340Z,36.23
2019-01-23T03:47:32.675Z,34.50
2019-01-23T03:49:59.935Z,36.27
2019-01-23T03:52:27.146Z,37.33
2019-01-23T03:54:54.430Z,35.80
2019-01-23T03:57:21.694Z,34.43
2019-01-23T03:59:48.929Z,33.87
2019-01-23T04:02:16.213Z,30.83
2019-01-23T04:04:43.562Z,35.53
2019-01-23T04:07:10.851Z,35.70
2019-01-23T04:09:38.050Z,32.77
2019-01-23T04:12:05.272Z,35.60
2019-01-23T04:14:32.559Z,33.30
2019-01-23T04:16:59.855Z,33.20
2019-01-23T04:19:27.134Z,35.27
2019-01-23T04:21:54.342Z,36.50
2019-01-23T04:24:21.627Z,35.30
2019-01-23T04:26:48.896Z,33.10
2019-01-23T04:29:16.171Z,34.07
2019-01-23T04:31:43.396Z,33.93
2019-01-23T04:34:10.732Z,31.40
2019-01-23T04:36:38.044Z,32.87
2019-01-23T04:39:06.311Z,34.90
2019-01-23T04:41:33.498Z,32.77
2019-01-23T04:44:00.767Z,34.73
2019-01-23T04:46:28.028Z,34.67
2019-01-23T04:48:55.213Z,34.73
2019-01-23T04:51:32.902Z,32.10
2019-01-23T04:54:00.239Z,34.50
2019-01-23T04:56:27.446Z,36.43
2019-01-23T04:58:54.632Z,34.07
2019-01-23T05:01:22.208Z,34.50
2019-01-23T05:03:49.431Z,36.07
2019-01-23T05:06:16.613Z,36.20
2019-01-23T05:08:43.832Z,37.80
2019-01-23T05:11:11.036Z,34.17
2019-01-23T05:13:38.233Z,36.80
2019-01-23T05:16:05.674Z,37.93
2019-01-23T05:18:32.951Z,33.57
2019-01-23T05:21:00.224Z,34.13
2019-01-23T05:23:27.566Z,35.77
2019-01-23T05:25:54.956Z,32.77
2019-01-23T05:28:22.469Z,33.87
2019-01-23T05:30:49.695Z,34.87
2019-01-23T05:33:17.031Z,32.77
2019-01-23T05:35:44.228Z,36.33
2019-01-23T05:38:11.446Z,36.30
2019-01-23T05:40:38.752Z,37.47
2019-01-23T05:43:06.075Z,36.90
2019-01-23T05:45:33.387Z,32.87
2019-01-23T05:48:00.695Z,38.73
2019-01-23T05:50:28.143Z,35.23
2019-01-23T05:52:55.532Z,33.80
2019-01-23T05:55:22.857Z,33.37
2019-01-23T05:57:53.234Z,36.87
2019-01-23T06:00:22.603Z,36.17
2019-01-23T06:02:49.893Z,34.67
2019-01-23T06:05:20.004Z,35.73
2019-01-23T06:07:47.393Z,33.63
2019-01-23T06:10:14.579Z,38.37
2019-01-23T06:12:41.865Z,37.00
2019-01-23T06:15:12.347Z,37.23
2019-01-23T06:17:39.622Z,39.83
2019-01-23T06:20:08.728Z,33.17
2019-01-23T06:22:35.984Z,36.73
2019-01-23T06:25:03.285Z,33.90
2019-01-23T06:27:31.390Z,37.90
2019-01-23T06:29:58.620Z,37.70
2019-01-23T06:32:25.909Z,35.40
2019-01-23T06:34:53.126Z,38.37
2019-01-23T06:37:20.361Z,45.00
2019-01-23T06:39:47.700Z,38.20
2019-01-23T06:42:15.057Z,40.17
2019-01-23T06:44:42.270Z,39.73
2019-01-23T06:47:09.542Z,40.47
2019-01-23T06:49:36.826Z,39.43
2019-01-23T06:52:04.098Z,40.73
2019-01-23T06:54:31.373Z,43.30
2019-01-23T06:56:58.652Z,44.97
2019-01-23T06:59:25.848Z,44.50
2019-01-23T07:01:53.057Z,45.23
2019-01-23T07:04:20.263Z,48.87
2019-01-23T07:06:47.476Z,44.50
2019-01-23T07:09:14.691Z,47.27
2019-01-23T07:11:41.885Z,42.20
2019-01-23T07:14:09.246Z,45.47
2019-01-23T07:16:36.514Z,46.33
2019-01-23T07:19:03.820Z,46.23
2019-01-23T07:21:31.162Z,49.37
2019-01-23T07:23:58.347Z,48.97
2019-01-23T07:26:25.562Z,48.73
2019-01-23T07:28:52.901Z,53.10
2019-01-23T07:31:20.126Z,49.70
2019-01-23T07:33:47.342Z,49.80
2019-01-23T07:36:14.561Z,53.97
2019-01-23T07:38:41.760Z,55.13
2019-01-23T07:41:09.088Z,53.70
2019-01-23T07:43:36.377Z,52.13
2019-01-23T07:46:03.625Z,53.93
2019-01-23T07:48:30.866Z,55.50
2019-01-23T07:50:58.118Z,50.73
2019-01-23T07:53:25.424Z,59.43
2019-01-23T07:55:52.634Z,60.33
2019-01-23T07:58:19.841Z,61.27
2019-01-23T08:00:47.147Z,53.60
2019-01-23T08:03:14.432Z,55.23
2019-01-23T08:05:41.690Z,55.27
2019-01-23T08:08:08.948Z,51.80
2019-01-23T08:10:36.171Z,56.27
2019-01-23T08:13:03.411Z,59.33
2019-01-23T08:15:31.762Z,56.13
2019-01-23T08:17:59.010Z,57.73
2019-01-23T08:20:27.519Z,88.63
2019-01-23T08:22:54.725Z,63.93
2019-01-23T08:25:21.945Z,63.90
2019-01-23T08:27:49.222Z,63.93
2019-01-23T08:30:17.442Z,63.73
2019-01-23T08:32:44.688Z,66.50
2019-01-23T08:35:11.928Z,66.23
2019-01-23T08:37:39.176Z,64.20
2019-01-23T08:40:08.062Z,65.43
2019-01-23T08:42:35.339Z,70.37
2019-01-23T08:45:02.556Z,69.43
2019-01-23T08:47:29.763Z,66.50
2019-01-23T08:49:56.960Z,71.90
2019-01-23T08:52:24.203Z,71.63
2019-01-23T08:54:51.481Z,66.80
2019-01-23T08:57:18.760Z,72.80
2019-01-23T08:59:46.037Z,67.13
2019-01-23T09:02:13.234Z,72.03
2019-01-23T09:04:40.458Z,66.23
2019-01-23T09:07:07.673Z,67.33
2019-01-23T09:09:35.104Z,67.50
2019-01-23T09:12:02.406Z,71.83
2019-01-23T09:14:29.631Z,70.17
2019-01-23T09:16:56.820Z,75.67
2019-01-23T09:19:24.073Z,71.50
2019-01-23T09:21:51.318Z,71.20
2019-01-23T09:24:18.579Z,71.47
2019-01-23T09:26:46.256Z,73.60
2019-01-23T09:29:13.677Z,72.90
2019-01-23T09:31:51.551Z,78.43
2019-01-23T09:34:32.416Z,78.37
2019-01-23T09:37:01.248Z,77.43
2019-01-23T09:39:30.096Z,77.57
2019-01-23T09:42:07.745Z,76.27
2019-01-23T09:44:54.730Z,78.53
2019-01-23T09:47:26.312Z,77.63
2019-01-23T09:50:03.967Z,76.90
2019-01-23T09:52:35.681Z,74.33
2019-01-23T09:55:03.647Z,82.37
2019-01-23T09:57:32.005Z,82.50
2019-01-23T09:59:59.256Z,76.43
2019-01-23T10:02:26.504Z,78.13
2019-01-23T10:04:54.643Z,74.93
2019-01-23T10:07:21.915Z,81.53
2019-01-23T10:09:49.127Z,75.53
2019-01-23T10:12:16.329Z,81.47
2019-01-23T10:14:43.534Z,73.67
2019-01-23T10:17:10.775Z,78.70
2019-01-23T10:19:37.972Z,77.00
2019-01-23T10:22:05.240Z,73.00
2019-01-23T10:24:36.026Z,75.63
2019-01-23T10:27:01.380Z,75.20
2019-01-23T10:29:28.647Z,74.27
2019-01-23T10:31:55.854Z,75.80
2019-01-23T10:34:23.040Z,77.73
2019-01-23T10:36:50.261Z,79.20
2019-01-23T10:39:17.464Z,82.67
2019-01-23T10:41:44.651Z,80.80
2019-01-23T10:44:11.883Z,80.03
2019-01-23T10:46:39.071Z,74.10
2019-01-23T10:49:06.275Z,75.70
2019-01-23T10:51:33.483Z,69.43
2019-01-23T10:54:00.691Z,69.47
2019-01-23T10:56:27.971Z,74.87
2019-01-23T10:58:55.167Z,70.27
2019-01-23T11:01:22.361Z,73.97
2019-01-23T11:03:49.584Z,71.77
2019-01-23T11:06:16.776Z,72.00
2019-01-23T11:08:43.978Z,72.47
2019-01-23T11:11:11.198Z,68.40
2019-01-23T11:13:38.400Z,73.60
2019-01-23T11:16:05.609Z,73.53
2019-01-23T11:18:32.801Z,72.27
2019-01-23T11:21:00.016Z,73.83
2019-01-23T11:23:27.205Z,73.33
2019-01-23T11:25:54.471Z,66.80
2019-01-23T11:28:21.754Z,68.60
2019-01-23T11:30:48.949Z,74.93
2019-01-23T11:33:16.177Z,77.70
2019-01-23T11:35:43.382Z,73.33
2019-01-23T11:38:10.584Z,73.33
2019-01-23T11:40:37.793Z,91.83
2019-01-23T11:43:04.997Z,70.27
2019-01-23T11:45:32.190Z,71.00
2019-01-23T11:47:59.429Z,70.47
2019-01-23T11:50:26.619Z,66.13
2019-01-23T11:52:53.883Z,72.93
2019-01-23T11:55:21.091Z,68.77
2019-01-23T11:57:48.296Z,71.30
2019-01-23T12:00:16.590Z,72.47
2019-01-23T12:02:43.848Z,68.60
2019-01-23T12:05:12.272Z,64.63
2019-01-23T12:07:39.508Z,65.63
2019-01-23T12:10:08.395Z,70.50
2019-01-23T12:12:35.632Z,62.93
2019-01-23T12:15:02.849Z,67.40
2019-01-23T12:17:30.114Z,66.90
2019-01-23T12:19:57.341Z,63.57
2019-01-23T12:22:24.704Z,65.33
2019-01-23T12:24:51.906Z,72.37
2019-01-23T12:27:19.175Z,66.93
2019-01-23T12:29:46.370Z,65.97
2019-01-23T12:32:13.556Z,67.93
2019-01-23T12:34:40.757Z,62.17
2019-01-23T12:37:07.958Z,67.90
2019-01-23T12:39:35.229Z,65.57
2019-01-23T12:42:02.434Z,63.50
2019-01-23T12:44:29.712Z,65.83
2019-01-23T12:46:57.008Z,67.67
2019-01-23T12:49:24.278Z,63.07
2019-01-23T12:51:51.554Z,62.30
2019-01-23T12:54:18.838Z,63.57
2019-01-23T12:56:46.055Z,65.27
2019-01-23T12:59:13.249Z,63.33
2019-01-23T13:01:42.167Z,68.10
2019-01-23T13:04:09.428Z,67.93
2019-01-23T13:06:36.646Z,57.83
2019-01-23T13:09:05.366Z,66.53
2019-01-23T13:11:32.818Z,65.43
2019-01-23T13:14:00.081Z,68.63
2019-01-23T13:16:27.411Z,60.10
2019-01-23T13:18:54.601Z,60.50
2019-01-23T13:21:21.818Z,61.07
2019-01-23T13:23:49.007Z,63.43
2019-01-23T13:26:16.211Z,63.40
2019-01-23T13:28:43.413Z,63.97
2019-01-23T13:31:10.615Z,56.13
2019-01-23T13:33:37.816Z,57.30
2019-01-23T13:36:05.624Z,60.20
2019-01-23T13:38:32.935Z,57.17
2019-01-23T13:41:00.168Z,56.33
2019-01-23T13:43:27.472Z,54.57
2019-01-23T13:45:54.715Z,51.50
2019-01-23T13:48:21.968Z,49.97
2019-01-23T13:50:49.176Z,50.83
2019-01-23T13:53:16.368Z,52.13
2019-01-23T13:55:43.591Z,52.77
2019-01-23T13:58:10.856Z,51.47
2019-01-23T14:00:41.784Z,52.10
2019-01-23T14:03:09.003Z,49.17
2019-01-23T14:05:36.198Z,47.67
2019-01-23T14:08:04.243Z,45.67
2019-01-23T14:10:31.476Z,46.93
2019-01-23T14:12:58.672Z,43.57
2019-01-23T14:15:27.103Z,43.57
2019-01-23T14:17:54.337Z,45.90
2019-01-23T14:20:21.613Z,41.07
2019-01-23T14:22:48.884Z,42.13
2019-01-23T14:25:16.523Z,46.03
2019-01-23T14:27:43.826Z,42.30
2019-01-23T14:30:12.801Z,43.87
2019-01-23T14:32:40.005Z,45.77
2019-01-23T14:35:08.681Z,39.17
2019-01-23T14:37:35.874Z,41.83
2019-01-23T14:40:04.608Z,42.63
2019-01-23T14:42:31.846Z,42.70
2019-01-23T14:44:59.111Z,40.57
2019-01-23T14:47:26.347Z,40.07
2019-01-23T14:49:53.551Z,38.67
2019-01-23T14:52:20.764Z,36.80
2019-01-23T14:54:47.949Z,40.27
2019-01-23T14:57:15.165Z,40.60
2019-01-23T14:59:42.364Z,40.47
2019-01-23T15:02:10.335Z,38.87
2019-01-23T15:04:38.655Z,36.93
2019-01-23T15:07:05.852Z,35.53
2019-01-23T15:09:33.121Z,39.13
2019-01-23T15:12:00.311Z,35.60
2019-01-23T15:14:27.514Z,35.37
2019-01-23T15:16:54.802Z,32.03
2019-01-23T15:19:22.073Z,32.67
2019-01-23T15:21:49.280Z,32.23
2019-01-23T15:24:16.470Z,30.37
2019-01-23T15:26:43.657Z,32.03
2019-01-23T15:29:10.872Z,32.07
2019-01-23T15:31:38.081Z,34.40
2019-01-23T15:34:05.294Z,27.90
2019-01-23T15:36:32.496Z,31.03
2019-01-23T15:38:59.699Z,29.47
2019-01-23T15:41:26.885Z,24.43
2019-01-23T15:43:54.165Z,27.63
2019-01-23T15:46:21.374Z,26.77
2019-01-23T15:48:48.633Z,27.77
2019-01-23T15:51:15.931Z,26.40
2019-01-23T15:53:43.175Z,25.87
2019-01-23T15:56:10.377Z,26.10
2019-01-23T15:58:37.568Z,29.50
2019-01-23T16:01:05.081Z,26.67
2019-01-23T16:03:32.352Z,26.90
2019-01-23T16:05:59.656Z,27.70
2019-01-23T16:08:26.909Z,27.50
2019-01-23T16:10:54.217Z,25.40
2019-01-23T16:13:21.413Z,27.57
2019-01-23T16:15:48.673Z,28.30
2019-01-23T16:18:15.949Z,24.93
2019-01-23T16:20:43.205Z,23.67
2019-01-23T16:23:10.422Z,24.20
2019-01-23T16:25:37.652Z,23.93
2019-01-23T16:28:04.906Z,28.27
2019-01-23T16:30:33.789Z,25.60
2019-01-23T16:33:01.023Z,24.10
2019-01-23T16:35:28.440Z,24.57
2019-01-23T16:37:55.705Z,23.60
2019-01-23T16:40:22.977Z,23.60
2019-01-23T16:42:50.186Z,23.37
2019-01-23T16:45:18.891Z,21.67
2019-01-23T16:47:46.137Z,21.87
2019-01-23T16:50:15.044Z,24.37
2019-01-23T16:52:42.232Z,21.73
2019-01-23T16:55:09.431Z,22.17
2019-01-23T16:57:36.715Z,21.00
2019-01-23T17:00:05.560Z,21.83
2019-01-23T17:02:38.619Z,21.87
2019-01-23T17:05:01.915Z,22.17
2019-01-23T17:07:29.470Z,20.63
2019-01-23T17:09:56.729Z,20.67
2019-01-23T17:12:23.941Z,21.57
2019-01-23T17:14:51.174Z,23.73
2019-01-23T17:17:18.631Z,21.33
2019-01-23T17:19:46.029Z,20.90
2019-01-23T17:22:13.285Z,22.33
2019-01-23T17:24:40.672Z,23.87
2019-01-23T17:27:07.900Z,21.57
2019-01-23T17:29:35.076Z,22.70
2019-01-23T17:32:02.390Z,24.63
2019-01-23T17:34:29.596Z,21.90
2019-01-23T17:36:56.787Z,24.23
2019-01-23T17:39:24.117Z,23.47
2019-01-23T17:41:51.389Z,22.00
2019-01-23T17:44:18.891Z,24.13
2019-01-23T17:46:46.752Z,25.10
2019-01-23T17:49:14.106Z,21.50
2019-01-23T17:51:41.534Z,21.63
2019-01-23T17:54:08.847Z,20.73
2019-01-23T17:56:36.106Z,22.70
2019-01-23T17:59:03.331Z,22.87
2019-01-23T18:01:30.656Z,21.50
2019-01-23T18:03:57.914Z,23.47
2019-01-23T18:06:25.216Z,21.97
2019-01-23T18:08:52.418Z,22.03
2019-01-23T18:11:19.650Z,23.43
2019-01-23T18:13:46.884Z,23.83
2019-01-23T18:16:14.160Z,23.90
2019-01-23T18:18:41.519Z,21.67
2019-01-23T18:21:08.811Z,24.33
2019-01-23T18:23:36.149Z,23.47
2019-01-23T18:26:03.378Z,22.70
2019-01-23T18:28:30.566Z,24.37
2019-01-23T18:30:59.474Z,23.50
2019-01-23T18:33:31.111Z,25.13
2019-01-23T18:36:02.865Z,26.40
2019-01-23T18:38:34.758Z,22.77
2019-01-23T18:41:03.646Z,24.63
2019-01-23T18:43:50.717Z,23.97
2019-01-23T18:46:36.400Z,22.40
2019-01-23T18:49:11.126Z,24.80
2019-01-23T18:51:38.605Z,23.63
2019-01-23T18:54:05.925Z,22.27
2019-01-23T18:56:33.371Z,24.17
2019-01-23T18:59:00.653Z,23.67
2019-01-23T19:01:27.930Z,22.93
2019-01-23T19:03:55.138Z,23.90
2019-01-23T19:06:22.333Z,21.37
2019-01-23T19:08:49.598Z,21.47
2019-01-23T19:11:16.871Z,21.90
2019-01-23T19:13:44.158Z,23.83
2019-01-23T19:16:11.490Z,23.27
2019-01-23T19:18:38.684Z,21.33
2019-01-23T19:21:06.021Z,23.67
2019-01-23T19:23:33.355Z,25.07
2019-01-23T19:26:00.551Z,23.67
2019-01-23T19:28:27.768Z,23.47
2019-01-23T19:30:55.094Z,25.87
2019-01-23T19:33:22.298Z,23.70
2019-01-23T19:35:49.569Z,23.27
2019-01-23T19:38:16.773Z,24.53
2019-01-23T19:40:45.546Z,23.27
2019-01-23T19:43:12.756Z,22.63
2019-01-23T19:45:39.960Z,24.07
2019-01-23T19:48:07.328Z,23.40
2019-01-23T19:50:34.539Z,24.47
2019-01-23T19:53:01.838Z,23.37
2019-01-23T19:55:29.111Z,21.73
2019-01-23T19:57:56.392Z,24.03
2019-01-23T20:00:23.628Z,25.27
2019-01-23T20:02:50.952Z,25.17
2019-01-23T20:05:19.430Z,24.53
2019-01-23T20:07:46.767Z,22.90
2019-01-23T20:10:17.198Z,24.03
2019-01-23T20:12:44.533Z,26.23
2019-01-23T20:15:12.993Z,23.03
2019-01-23T20:17:40.209Z,23.90
2019-01-23T20:20:09.156Z,23.67
2019-01-23T20:22:36.385Z,27.57
2019-01-23T20:25:04.552Z,25.70
2019-01-23T20:27:31.749Z,24.87
2019-01-23T20:29:59.010Z,23.70
2019-01-23T20:32:26.361Z,24.87
2019-01-23T20:34:53.653Z,27.10
2019-01-23T20:37:23.434Z,26.60
2019-01-23T20:39:52.345Z,25.60
2019-01-23T20:42:19.595Z,24.90
2019-01-23T20:44:46.811Z,26.30
2019-01-23T20:47:14.070Z,25.47
2019-01-23T20:49:41.292Z,24.10
2019-01-23T20:52:08.503Z,24.90
2019-01-23T20:54:35.774Z,25.50
2019-01-23T20:57:03.087Z,24.13
2019-01-23T20:59:30.313Z,24.77
2019-01-23T21:01:57.600Z,25.63
2019-01-23T21:04:24.956Z,24.33
2019-01-23T21:06:52.810Z,27.77
2019-01-23T21:09:20.072Z,24.77
2019-01-23T21:11:47.320Z,25.37
2019-01-23T21:14:14.607Z,25.73
2019-01-23T21:16:42.039Z,23.30
2019-01-23T21:19:09.253Z,26.10
2019-01-23T21:21:36.579Z,24.53
2019-01-23T21:24:03.849Z,25.50
2019-01-23T21:26:31.157Z,22.93
2019-01-23T21:28:58.409Z,25.50
2019-01-23T21:31:25.638Z,28.00
2019-01-23T21:33:52.871Z,26.37
2019-01-23T21:36:20.161Z,26.23
2019-01-23T21:38:47.378Z,25.27
2019-01-23T21:41:14.643Z,24.50
2019-01-23T21:43:41.888Z,23.70
2019-01-23T21:46:09.134Z,24.90
2019-01-23T21:48:36.416Z,25.07
2019-01-23T21:51:03.672Z,24.30
2019-01-23T21:53:30.848Z,23.90
2019-01-23T21:55:58.058Z,22.03
2019-01-23T21:58:25.423Z,24.80
2019-01-23T22:00:52.662Z,23.57
2019-01-23T22:03:19.903Z,21.53
2019-01-23T22:05:47.160Z,21.70
2019-01-23T22:08:14.445Z,21.53
2019-01-23T22:10:41.700Z,23.50
2019-01-23T22:13:09.015Z,23.80
2019-01-23T22:15:36.417Z,25.97
2019-01-23T22:18:04.144Z,22.03
2019-01-23T22:20:31.427Z,24.63
2019-01-23T22:22:58.779Z,23.20
2019-01-23T22:25:26.145Z,24.67
2019-01-23T22:27:53.688Z,25.60
2019-01-23T22:30:22.111Z,25.10
2019-01-23T22:32:49.335Z,22.73
2019-01-23T22:35:16.604Z,24.20
2019-01-23T22:37:43.927Z,21.47
2019-01-23T22:40:12.171Z,23.93
2019-01-23T22:42:39.388Z,26.67
2019-01-23T22:45:08.166Z,25.13
2019-01-23T22:47:35.424Z,26.27
2019-01-23T22:50:03.702Z,23.33
2019-01-23T22:52:30.924Z,23.60
2019-01-23T22:54:58.199Z,24.87
2019-01-23T22:57:25.404Z,22.63
2019-01-23T22:59:52.632Z,22.53
2019-01-23T23:02:19.824Z,24.13
2019-01-23T23:04:47.029Z,24.97
2019-01-23T23:07:14.306Z,25.10
2019-01-23T23:09:41.589Z,25.97
2019-01-23T23:12:08.789Z,32.80
2019-01-23T23:14:36.009Z,28.30
2019-01-23T23:17:03.358Z,28.77
2019-01-23T23:19:30.612Z,25.27
2019-01-23T23:21:57.793Z,26.60
2019-01-23T23:24:25.004Z,26.33
2019-01-23T23:26:52.192Z,25.73
2019-01-23T23:29:19.409Z,26.63
2019-01-23T23:31:46.704Z,26.73
2019-01-23T23:34:13.913Z,26.43
2019-01-23T23:36:41.180Z,25.23
2019-01-23T23:39:08.407Z,26.13
2019-01-23T23:41:35.667Z,25.63
2019-01-23T23:44:02.945Z,25.77
2019-01-23T23:46:30.216Z,25.70
2019-01-23T23:48:57.420Z,26.47
2019-01-23T23:51:24.621Z,25.53
2019-01-23T23:53:51.829Z,24.93
2019-01-23T23:56:19.071Z,25.47
2019-01-23T23:58:46.285Z,27.40
